الصفحة الرئيسية
METAR-TAF:

METAR-TAF

مطار :

لار, إيران

دائرة عرض: 27-40-26N, خط طول: 054-22-53E, ارتفاع: 792 متر

مراقبة الطقس الحالي

تاريخ ووقت الإصدار 23 دقيقة قبل الساعة 03:00UTC
ريح 4 عقدة من الغرب
درجة الحرارة 15°درجة مئوية
الرطوبة 55%
ضغط 1009 hPa
الرؤية 10 كم أو أكثر
الغيوم لا تقل 1500 م ولا وجود لمزنة ركامية السحاب الأسود

METAR: OISL 130300Z 28004KT CAVOK 15/06 Q1008 A2979

زمن: 07:53 (03:23 UTC)

توقعات

تاريخ ووقت الإصدار 4ساعات و 23 دقيقة قبل الساعة 23:00UTC
التوقعات صالحة من13 الساعة 00 UTC إلى 14 الساعة 06 UTC
ريح 6 عقدة من الغرب
الرؤية: 7000 متر
غيوم قليلة على ارتفاع 3500 قدم
غيوم متفرقة على ارتفاع 10000 قدم
مؤقت
من 13 الساعة 08 UTC إلى 13 الساعة 16 UTC
ريح 18 عقدة من الغرب

TAF: OISL 122300Z 1300/1406 28006KT 7000 FEW035 SCT100 TEMPO 1308/1316 27018KT

أرصاد الطقس والتوقعات من أكثر من 4000 مطار (تقارير الطقس للمطار METAR والتنبؤ بالطقس بالمطارTAF).

المحطات المتاحة هي النقط الصفراء والحمراء على الخريطة.

حرك المؤشر فوق النقطة لمعرفة اسم المحطة.

ثم انقر لمعرفة أرصاد وتوقعات الطقس.

لتغيير الخارطة: اضغط على الأزرار الخضراء مع رمز الصليب الأسود للتكبير. على الزر الأخضر مع شرطة للتصغير، أو على الأسهم الخضراء للخرائط المجاورة.


METAR-TAF: